createdAt,value
2023-02-19T00:01:50.833Z,100945.84
2023-02-19T00:04:21.786Z,100947.44
2023-02-19T00:06:50.751Z,100945.59
2023-02-19T00:09:22.830Z,100940.16
2023-02-19T00:11:52.197Z,100941.84
2023-02-19T00:14:21.825Z,100940.16
2023-02-19T00:16:50.146Z,100934.84
2023-02-19T00:19:19.944Z,100935.31
2023-02-19T00:21:48.426Z,100929.72
2023-02-19T00:24:16.665Z,100929.16
2023-02-19T00:26:45.475Z,100937.97
2023-02-19T00:29:16.939Z,100929.00
2023-02-19T00:31:46.339Z,100921.88
2023-02-19T00:34:15.017Z,100920.53
2023-02-19T00:36:44.034Z,100930.31
2023-02-19T00:39:15.732Z,100917.88
2023-02-19T00:41:43.453Z,100922.81
2023-02-19T00:44:12.387Z,100916.19
2023-02-19T00:46:44.049Z,100927.53
2023-02-19T00:49:17.434Z,100917.88
2023-02-19T00:51:45.379Z,100922.34
2023-02-19T00:54:13.928Z,100927.53
2023-02-19T00:56:41.641Z,100934.56
2023-02-19T00:59:10.335Z,100926.34
2023-02-19T01:01:39.010Z,100931.03
2023-02-19T01:07:01.032Z,100926.69
2023-02-19T01:09:28.723Z,100924.88
2023-02-19T01:11:56.356Z,100931.03
2023-02-19T01:14:27.815Z,100930.91
2023-02-19T01:16:57.845Z,100932.84
2023-02-19T01:19:27.239Z,100927.53
2023-02-19T01:21:54.975Z,100923.66
2023-02-19T01:24:23.403Z,100927.41
2023-02-19T01:26:51.004Z,100924.03
2023-02-19T01:29:18.851Z,100929.25
2023-02-19T01:31:46.702Z,100930.66
2023-02-19T01:34:15.963Z,100922.81
2023-02-19T01:36:44.873Z,100921.25
2023-02-19T01:39:12.989Z,100931.91
2023-02-19T01:41:42.900Z,100922.66
2023-02-19T01:44:45.974Z,100920.75
2023-02-19T01:47:19.694Z,100930.50
2023-02-19T01:49:52.987Z,100930.19
2023-02-19T01:52:27.604Z,100922.34
2023-02-19T01:54:56.782Z,100924.16
2023-02-19T01:57:34.826Z,100923.31
2023-02-19T02:00:05.948Z,100917.53
2023-02-19T02:02:41.178Z,100923.56
2023-02-19T02:05:14.962Z,100921.19
2023-02-19T02:08:03.240Z,100931.94
2023-02-19T02:10:30.909Z,100927.19
2023-02-19T02:12:59.421Z,100926.63
2023-02-19T02:15:35.253Z,100926.63
2023-02-19T02:18:10.006Z,100929.84
2023-02-19T02:20:55.601Z,100929.28
2023-02-19T02:23:36.141Z,100921.41
2023-02-19T02:26:17.082Z,100930.97
2023-02-19T02:29:15.516Z,100928.81
2023-02-19T02:31:51.901Z,100929.66
2023-02-19T02:34:27.304Z,100931.22
2023-02-19T02:36:57.848Z,100925.31
2023-02-19T02:39:30.599Z,100922.66
2023-02-19T02:46:12.867Z,100919.53
2023-02-19T02:48:46.761Z,100922.06
2023-02-19T02:51:19.837Z,100914.78
2023-02-19T02:54:29.096Z,100934.50
2023-02-19T02:57:25.851Z,100928.09
2023-02-19T02:59:57.453Z,100927.13
2023-02-19T03:02:32.185Z,100925.44
2023-02-19T03:05:46.860Z,100923.19
2023-02-19T03:08:17.559Z,100921.59
2023-02-19T03:10:54.328Z,100923.56
2023-02-19T03:13:46.918Z,100920.06
2023-02-19T03:16:36.202Z,100922.06
2023-02-19T03:19:23.016Z,100933.47
2023-02-19T03:21:57.869Z,100936.38
2023-02-19T03:24:48.130Z,100940.13
2023-02-19T03:27:20.374Z,100951.00
2023-02-19T03:29:55.841Z,100953.41
2023-02-19T03:32:30.942Z,100955.94
2023-02-19T03:35:06.844Z,100956.59
2023-02-19T03:37:42.478Z,100953.06
2023-02-19T03:40:11.862Z,100956.31
2023-02-19T03:42:47.411Z,100960.09
2023-02-19T03:45:28.980Z,100962.84
2023-02-19T03:48:09.426Z,100967.56
2023-02-19T03:50:45.852Z,100959.59
2023-02-19T03:53:28.860Z,100971.06
2023-02-19T03:56:05.836Z,100972.88
2023-02-19T03:58:44.835Z,100986.19
2023-02-19T04:01:18.860Z,100976.38
2023-02-19T04:03:52.964Z,100970.47
2023-02-19T04:06:26.975Z,100984.00
2023-02-19T04:09:01.175Z,100977.03
2023-02-19T04:11:31.527Z,100985.69
2023-02-19T04:14:08.228Z,100985.22
2023-02-19T04:16:38.860Z,100992.34
2023-02-19T04:19:11.339Z,100999.34
2023-02-19T04:21:42.935Z,101002.13
2023-02-19T04:24:15.930Z,101002.97
2023-02-19T04:26:45.742Z,101012.63
2023-02-19T04:29:13.423Z,101004.91
2023-02-19T04:31:41.138Z,101019.28
2023-02-19T04:34:10.406Z,101016.75
2023-02-19T04:36:38.973Z,101022.28
2023-02-19T04:39:08.082Z,101026.88
2023-02-19T04:41:37.944Z,101031.22
2023-02-19T04:44:06.163Z,101042.31
2023-02-19T04:46:33.972Z,101037.63
2023-02-19T04:49:01.567Z,101045.59
2023-02-19T04:51:29.282Z,101046.56
2023-02-19T04:53:57.261Z,101047.28
2023-02-19T04:56:24.956Z,101051.03
2023-02-19T04:58:54.877Z,101044.84
2023-02-19T05:01:22.528Z,101057.56
2023-02-19T05:03:51.842Z,101067.47
2023-02-19T05:06:19.696Z,101065.66
2023-02-19T05:08:47.400Z,101069.25
2023-02-19T05:11:15.286Z,101065.16
2023-02-19T05:13:44.418Z,101068.78
2023-02-19T05:16:16.868Z,101081.44
2023-02-19T05:18:46.153Z,101092.19
2023-02-19T05:21:14.453Z,101088.78
2023-02-19T05:23:43.864Z,101094.00
2023-02-19T05:26:17.698Z,101103.28
2023-02-19T05:28:45.847Z,101101.22
2023-02-19T05:31:15.969Z,101099.41
2023-02-19T05:33:44.261Z,101101.22
2023-02-19T05:36:14.846Z,101106.31
2023-02-19T05:38:42.607Z,101109.94
2023-02-19T05:41:13.833Z,101116.78
2023-02-19T05:43:44.494Z,101119.31
2023-02-19T05:46:13.618Z,101123.19
2023-02-19T05:48:43.188Z,101126.91
2023-02-19T05:54:05.250Z,101132.69
2023-02-19T05:56:35.029Z,101131.63
2023-02-19T05:59:08.898Z,101130.88
2023-02-19T06:01:37.626Z,101131.72
2023-02-19T06:04:06.863Z,101132.81
2023-02-19T06:06:36.011Z,101142.72
2023-02-19T06:09:33.883Z,101143.44
2023-02-19T06:12:01.563Z,101139.81
2023-02-19T06:14:29.380Z,101150.44
2023-02-19T06:17:05.851Z,101152.03
2023-02-19T06:19:34.946Z,101150.31
2023-02-19T06:22:02.852Z,101155.75
2023-02-19T06:24:32.591Z,101154.91
2023-02-19T06:27:00.490Z,101160.84
2023-02-19T06:29:28.983Z,101160.00
2023-02-19T06:31:56.903Z,101160.84
2023-02-19T06:34:25.659Z,101168.19
2023-02-19T06:36:55.022Z,101168.91
2023-02-19T06:39:23.425Z,101171.47
2023-02-19T06:41:51.291Z,101177.69
2023-02-19T06:44:20.491Z,101184.72
2023-02-19T06:46:48.136Z,101186.53
2023-02-19T06:49:16.902Z,101193.25
2023-02-19T06:51:51.851Z,101199.66
2023-02-19T06:54:25.633Z,101205.81
2023-02-19T06:56:53.870Z,101217.59
2023-02-19T06:59:22.266Z,101223.03
2023-02-19T07:01:49.928Z,101231.25
2023-02-19T07:04:17.884Z,101223.28
2023-02-19T07:06:46.954Z,101234.94
2023-02-19T07:09:14.860Z,101241.94
2023-02-19T07:12:10.075Z,101254.03
2023-02-19T07:14:40.894Z,101249.44
2023-02-19T07:17:12.409Z,101254.50
2023-02-19T07:19:40.107Z,101262.31
2023-02-19T07:22:09.854Z,101263.28
2023-02-19T07:24:38.956Z,101262.31
2023-02-19T07:27:06.593Z,101263.19
2023-02-19T07:29:35.958Z,101273.06
2023-02-19T07:32:04.035Z,101271.47
2023-02-19T07:34:31.693Z,101276.69
2023-02-19T07:37:02.860Z,101283.88
2023-02-19T07:39:31.429Z,101289.00
2023-02-19T07:42:00.947Z,101297.06
2023-02-19T07:44:34.634Z,101298.88
2023-02-19T07:47:02.289Z,101301.53
2023-02-19T07:49:33.871Z,101301.41
2023-02-19T07:52:02.998Z,101304.06
2023-02-19T07:54:35.279Z,101306.72
2023-02-19T07:57:02.965Z,101318.31
2023-02-19T07:59:35.860Z,101313.09
2023-02-19T08:02:35.871Z,101316.59
2023-02-19T08:05:04.050Z,101330.59
2023-02-19T08:07:33.856Z,101343.03
2023-02-19T08:10:19.175Z,101343.56
2023-02-19T08:13:12.932Z,101358.75
2023-02-19T08:15:44.094Z,101370.66
2023-02-19T08:18:12.971Z,101372.34
2023-02-19T08:20:41.409Z,101371.72
2023-02-19T08:23:09.333Z,101378.63
2023-02-19T08:25:38.970Z,101381.41
2023-02-19T08:28:08.715Z,101383.75
2023-02-19T08:30:39.060Z,101383.72
2023-02-19T08:33:09.039Z,101389.44
2023-02-19T08:35:37.846Z,101390.59
2023-02-19T08:38:08.175Z,101399.81
2023-02-19T08:40:35.843Z,101400.88
2023-02-19T08:43:05.458Z,101409.91
2023-02-19T08:45:33.484Z,101411.06
2023-02-19T08:48:01.957Z,101414.84
2023-02-19T08:50:33.182Z,101417.81
2023-02-19T08:53:01.892Z,101412.84
2023-02-19T08:55:30.253Z,101427.25
2023-02-19T08:57:58.519Z,101432.72
2023-02-19T09:00:28.847Z,101437.41
2023-02-19T09:02:58.635Z,101452.00
2023-02-19T09:05:26.519Z,101456.53
2023-02-19T09:07:55.463Z,101454.84
2023-02-19T09:10:26.835Z,101462.03
2023-02-19T09:12:54.423Z,101455.25
2023-02-19T09:15:22.853Z,101474.84
2023-02-19T09:17:52.564Z,101476.63
2023-02-19T09:20:20.908Z,101483.81
2023-02-19T09:22:49.862Z,101486.56
2023-02-19T09:25:18.777Z,101491.69
2023-02-19T09:27:46.995Z,101498.34
2023-02-19T09:30:17.304Z,101501.16
2023-02-19T09:32:46.381Z,101510.25
2023-02-19T09:35:17.019Z,101512.06
2023-02-19T09:37:44.866Z,101517.34
2023-02-19T09:40:13.028Z,101520.00
2023-02-19T09:42:44.256Z,101524.13
2023-02-19T09:45:37.961Z,101523.41
2023-02-19T09:51:03.844Z,101545.31
2023-02-19T09:53:41.863Z,101555.06
2023-02-19T09:56:09.979Z,101551.56
2023-02-19T09:58:48.824Z,101568.41
2023-02-19T10:01:17.018Z,101570.94
2023-02-19T10:03:48.824Z,101578.03
2023-02-19T10:06:21.723Z,101586.94
2023-02-19T10:08:52.633Z,101592.22
2023-02-19T10:11:20.978Z,101604.34
2023-02-19T10:13:59.055Z,101606.03
2023-02-19T10:16:53.379Z,101620.13
2023-02-19T10:19:21.002Z,101618.41
2023-02-19T10:21:48.567Z,101619.38
2023-02-19T10:24:22.376Z,101623.72
2023-02-19T10:26:53.844Z,101622.00
2023-02-19T10:29:24.865Z,101627.31
2023-02-19T10:32:13.220Z,101634.31
2023-02-19T10:34:40.805Z,101643.00
2023-02-19T10:37:15.489Z,101642.31
2023-02-19T10:39:46.522Z,101644.13
2023-02-19T10:42:24.889Z,101643.00
2023-02-19T10:45:23.641Z,101653.47
2023-02-19T10:47:54.843Z,101657.06
2023-02-19T10:50:53.613Z,101650.81
2023-02-19T10:53:24.352Z,101658.50
2023-02-19T10:56:09.864Z,101664.47
2023-02-19T10:58:42.190Z,101667.00
2023-02-19T11:01:14.930Z,101665.31
2023-02-19T11:03:43.913Z,101672.31
2023-02-19T11:06:17.867Z,101663.63
2023-02-19T11:08:51.498Z,101667.19
2023-02-19T11:11:35.235Z,101667.00
2023-02-19T11:14:06.533Z,101675.72
2023-02-19T11:16:49.883Z,101673.84
2023-02-19T11:19:25.531Z,101676.66
2023-02-19T11:21:53.713Z,101678.34
2023-02-19T11:24:29.877Z,101682.69
2023-02-19T11:26:59.408Z,101689.63
2023-02-19T11:29:28.647Z,101685.06
2023-02-19T11:31:57.767Z,101683.38
2023-02-19T11:34:30.266Z,101675.44
2023-02-19T11:37:14.999Z,101669.19
2023-02-19T11:39:45.797Z,101673.34
2023-02-19T11:42:37.102Z,101673.16
2023-02-19T11:45:33.696Z,101668.63
2023-02-19T11:48:33.167Z,101675.63
2023-02-19T11:51:13.408Z,101672.69
2023-02-19T11:53:49.958Z,101662.75
2023-02-19T11:56:21.701Z,101661.63
2023-02-19T11:59:01.333Z,101658.78
2023-02-19T12:01:50.076Z,101664.94
2023-02-19T12:05:08.333Z,101668.31
2023-02-19T12:07:58.902Z,101671.53
2023-02-19T12:10:36.854Z,101672.09
2023-02-19T12:13:17.893Z,101670.78
2023-02-19T12:15:57.109Z,101670.38
2023-02-19T12:18:54.613Z,101673.88
2023-02-19T12:21:40.862Z,101681.72
2023-02-19T12:24:28.864Z,101680.88
2023-02-19T12:27:13.548Z,101684.28
2023-02-19T12:29:57.104Z,101690.97
2023-02-19T12:32:48.425Z,101699.59
2023-02-19T12:35:30.962Z,101696.09
2023-02-19T12:38:05.828Z,101690.78
2023-02-19T12:40:49.903Z,101695.16
2023-02-19T12:43:20.794Z,101696.84
2023-02-19T12:45:55.235Z,101701.13
2023-02-19T12:48:30.487Z,101700.16
2023-02-19T12:51:02.038Z,101702.81
2023-02-19T12:53:38.893Z,101712.47
2023-02-19T12:56:13.731Z,101722.13
2023-02-19T12:58:46.349Z,101717.63
2023-02-19T13:01:19.443Z,101722.91
2023-02-19T13:03:53.702Z,101710.50
2023-02-19T13:06:35.845Z,101711.25
2023-02-19T13:09:13.766Z,101717.31
2023-02-19T13:11:47.052Z,101718.25
2023-02-19T13:14:22.919Z,101721.97
2023-02-19T13:16:56.594Z,101715.88
2023-02-19T13:19:24.370Z,101717.75
2023-02-19T13:22:17.764Z,101722.31
2023-02-19T13:24:47.888Z,101721.09
2023-02-19T13:27:37.419Z,101728.47
2023-02-19T13:30:20.097Z,101722.72
2023-02-19T13:33:00.263Z,101724.72
2023-02-19T13:35:54.864Z,101726.41
2023-02-19T13:38:23.272Z,101722.72
2023-02-19T13:40:57.846Z,101727.06
2023-02-19T13:43:27.961Z,101731.50
2023-02-19T13:45:59.413Z,101738.63
2023-02-19T13:48:29.843Z,101739.41
2023-02-19T13:51:46.643Z,101740.25
2023-02-19T13:54:22.294Z,101743.91
2023-02-19T13:57:12.214Z,101752.19
2023-02-19T13:59:40.891Z,101748.47
2023-02-19T14:02:15.822Z,101757.28
2023-02-19T14:04:51.364Z,101745.63
2023-02-19T14:07:44.623Z,101753.38
2023-02-19T14:10:15.910Z,101747.13
2023-02-19T14:12:46.657Z,101760.28
2023-02-19T14:15:41.958Z,101761.91
2023-02-19T14:18:44.313Z,101770.59
2023-02-19T14:21:19.030Z,101771.56
2023-02-19T14:23:54.547Z,101783.97
2023-02-19T14:26:23.391Z,101790.97
2023-02-19T14:28:54.118Z,101784.63
2023-02-19T14:31:27.852Z,101793.44
2023-02-19T14:33:57.797Z,101791.63
2023-02-19T14:36:34.836Z,101786.34
2023-02-19T14:39:05.913Z,101783.69
2023-02-19T14:41:38.400Z,101779.34
2023-02-19T14:44:14.627Z,101784.63
2023-02-19T14:46:50.027Z,101773.16
2023-02-19T14:49:22.326Z,101770.72
2023-02-19T14:51:53.450Z,101773.47
2023-02-19T14:54:27.526Z,101769.00
2023-02-19T14:56:55.909Z,101757.75
2023-02-19T14:59:27.869Z,101755.09
2023-02-19T15:02:01.356Z,101752.44
2023-02-19T15:04:31.412Z,101754.25
2023-02-19T15:07:06.685Z,101754.06
2023-02-19T15:09:40.252Z,101744.38
2023-02-19T15:12:09.090Z,101735.50
2023-02-19T15:14:41.869Z,101730.09
2023-02-19T15:17:09.562Z,101714.19
2023-02-19T15:19:39.486Z,101708.03
2023-02-19T15:22:07.248Z,101707.09
2023-02-19T15:25:02.434Z,101707.84
2023-02-19T15:27:30.315Z,101703.78
2023-02-19T15:29:59.262Z,101699.53
2023-02-19T15:32:28.871Z,101702.19
2023-02-19T15:34:57.916Z,101711.66
2023-02-19T15:37:28.883Z,101707.00
2023-02-19T15:39:59.480Z,101712.03
2023-02-19T15:42:29.792Z,101722.91
2023-02-19T15:45:04.331Z,101733.16
2023-02-19T15:47:38.160Z,101727.00
2023-02-19T15:50:11.360Z,101725.75
2023-02-19T15:52:46.580Z,101736.75
2023-02-19T15:55:30.255Z,101736.84
2023-02-19T15:58:09.889Z,101740.41
2023-02-19T16:00:46.069Z,101727.16
2023-02-19T16:03:19.894Z,101735.13
2023-02-19T16:06:17.065Z,101740.50
2023-02-19T16:09:03.908Z,101742.31
2023-02-19T16:11:36.506Z,101753.00
2023-02-19T16:14:24.588Z,101758.31
2023-02-19T16:16:57.890Z,101765.47
2023-02-19T16:19:28.834Z,101760.28
2023-02-19T16:21:56.912Z,101756.78
2023-02-19T16:24:32.083Z,101763.88
2023-02-19T16:27:00.051Z,101759.53
2023-02-19T16:29:29.369Z,101761.34
2023-02-19T16:32:00.432Z,101755.19
2023-02-19T16:34:40.276Z,101762.28
2023-02-19T16:37:33.255Z,101765.84
2023-02-19T16:40:52.390Z,101771.25
2023-02-19T16:43:32.013Z,101771.34
2023-02-19T16:46:02.896Z,101767.94
2023-02-19T16:48:31.937Z,101776.81
2023-02-19T16:50:59.705Z,101796.31
2023-02-19T16:53:28.794Z,101800.84
2023-02-19T16:55:56.479Z,101805.41
2023-02-19T16:58:24.076Z,101809.81
2023-02-19T17:00:52.721Z,101813.41
2023-02-19T17:03:23.893Z,101804.72
2023-02-19T17:05:53.846Z,101807.47
2023-02-19T17:08:37.870Z,101803.97
2023-02-19T17:11:07.973Z,101805.81
2023-02-19T17:13:37.453Z,101805.91
2023-02-19T17:16:05.678Z,101809.50
2023-02-19T17:18:35.269Z,101819.25
2023-02-19T17:21:14.891Z,101824.63
2023-02-19T17:23:43.451Z,101827.38
2023-02-19T17:26:14.719Z,101824.81
2023-02-19T17:28:43.032Z,101826.63
2023-02-19T17:31:14.247Z,101828.41
2023-02-19T17:33:43.539Z,101832.00
2023-02-19T17:36:19.147Z,101833.81
2023-02-19T17:38:47.760Z,101836.44
2023-02-19T17:41:15.579Z,101836.44
2023-02-19T17:43:43.548Z,101834.72
2023-02-19T17:46:15.503Z,101834.81
2023-02-19T17:48:43.704Z,101841.91
2023-02-19T17:51:13.272Z,101839.25
2023-02-19T17:53:41.874Z,101837.56
2023-02-19T17:56:09.609Z,101829.63
2023-02-19T17:58:37.433Z,101818.19
2023-02-19T18:01:05.351Z,101816.47
2023-02-19T18:03:33.598Z,101821.84
2023-02-19T18:06:01.362Z,101821.94
2023-02-19T18:08:31.191Z,101824.69
2023-02-19T18:11:00.819Z,101831.78
2023-02-19T18:13:28.398Z,101840.66
2023-02-19T18:15:56.616Z,101845.00
2023-02-19T18:18:24.202Z,101840.66
2023-02-19T18:20:52.891Z,101854.81
2023-02-19T18:23:21.110Z,101854.81
2023-02-19T18:25:50.092Z,101858.31
2023-02-19T18:28:17.990Z,101865.41
2023-02-19T18:30:45.756Z,101868.88
2023-02-19T18:33:14.099Z,101869.84
2023-02-19T18:35:42.057Z,101871.63
2023-02-19T18:38:10.336Z,101877.03
2023-02-19T18:40:37.975Z,101878.81
2023-02-19T18:43:07.330Z,101877.13
2023-02-19T18:45:37.084Z,101879.75
2023-02-19T18:48:05.492Z,101884.97
2023-02-19T18:50:34.718Z,101875.31
2023-02-19T18:53:02.447Z,101879.75
2023-02-19T18:55:30.363Z,101882.41
2023-02-19T18:57:58.020Z,101877.13
2023-02-19T19:00:27.284Z,101878.06
2023-02-19T19:02:59.372Z,101878.06
2023-02-19T19:05:27.712Z,101884.28
2023-02-19T19:07:56.888Z,101891.34
2023-02-19T19:10:24.896Z,101893.16
2023-02-19T19:12:54.029Z,101889.75
2023-02-19T19:15:22.342Z,101883.59
2023-02-19T19:17:51.683Z,101887.09
2023-02-19T19:20:20.424Z,101893.34
2023-02-19T19:22:50.408Z,101896.00
2023-02-19T19:25:18.546Z,101894.28
2023-02-19T19:27:46.206Z,101889.91
2023-02-19T19:30:15.133Z,101887.25
2023-02-19T19:32:42.926Z,101889.91
2023-02-19T19:35:12.146Z,101903.13
2023-02-19T19:37:39.731Z,101882.81
2023-02-19T19:40:08.833Z,101884.72
2023-02-19T19:42:36.523Z,101885.66
2023-02-19T19:45:06.257Z,101887.44
2023-02-19T19:47:34.123Z,101886.41
2023-02-19T19:50:02.439Z,101887.44
2023-02-19T19:52:31.976Z,101898.03
2023-02-19T19:54:59.570Z,101892.84
2023-02-19T19:57:27.167Z,101897.25
2023-02-19T19:59:55.566Z,101897.34
2023-02-19T20:02:23.653Z,101908.78
2023-02-19T20:04:51.469Z,101902.63
2023-02-19T20:07:19.139Z,101916.72
2023-02-19T20:09:49.871Z,101918.59
2023-02-19T20:12:17.979Z,101908.03
2023-02-19T20:14:49.888Z,101906.22
2023-02-19T20:17:17.580Z,101911.50
2023-02-19T20:19:47.010Z,101903.66
2023-02-19T20:22:14.621Z,101907.16
2023-02-19T20:24:42.271Z,101911.59
2023-02-19T20:27:11.438Z,101917.75
2023-02-19T20:29:39.364Z,101923.13
2023-02-19T20:32:07.024Z,101921.41
2023-02-19T20:34:34.625Z,101930.28
2023-02-19T20:37:02.500Z,101923.28
2023-02-19T20:39:30.271Z,101931.13
2023-02-19T20:41:59.362Z,101928.56
2023-02-19T20:44:29.884Z,101930.47
2023-02-19T20:47:00.208Z,101926.03
2023-02-19T20:49:29.725Z,101926.03
2023-02-19T20:51:59.626Z,101913.75
2023-02-19T20:54:29.165Z,101902.31
2023-02-19T20:56:59.560Z,101898.78
2023-02-19T20:59:31.018Z,101894.38
2023-02-19T21:01:59.115Z,101899.72
2023-02-19T21:04:27.683Z,101902.47
2023-02-19T21:06:55.323Z,101903.31
2023-02-19T21:09:24.097Z,101905.19
2023-02-19T21:11:53.020Z,101910.41
2023-02-19T21:14:21.334Z,101916.72
2023-02-19T21:16:50.884Z,101923.03
2023-02-19T21:19:18.520Z,101931.75
2023-02-19T21:21:46.155Z,101921.22
2023-02-19T21:24:15.999Z,101926.69
2023-02-19T21:26:45.691Z,101924.16
2023-02-19T21:29:19.551Z,101937.53
2023-02-19T21:31:49.225Z,101938.38
2023-02-19T21:34:20.105Z,101943.84
2023-02-19T21:36:47.993Z,101928.72
2023-02-19T21:39:17.502Z,101926.00
2023-02-19T21:41:45.288Z,101934.19
2023-02-19T21:44:13.989Z,101921.88
2023-02-19T21:46:41.853Z,101919.25
2023-02-19T21:49:14.277Z,101921.03
2023-02-19T21:51:47.964Z,101915.75
2023-02-19T21:54:19.137Z,101919.44
2023-02-19T21:56:46.991Z,101913.19
2023-02-19T21:59:14.621Z,101909.59
2023-02-19T22:01:43.269Z,101902.63
2023-02-19T22:04:14.893Z,101902.53
2023-02-19T22:06:45.909Z,101911.41
2023-02-19T22:09:14.825Z,101909.84
2023-02-19T22:11:42.865Z,101909.09
2023-02-19T22:14:10.544Z,101898.50
2023-02-19T22:16:40.028Z,101904.50
2023-02-19T22:19:33.091Z,101905.84
2023-02-19T22:22:02.347Z,101902.34
2023-02-19T22:24:29.973Z,101899.84
2023-02-19T22:26:58.620Z,101899.00
2023-02-19T22:29:26.712Z,101901.06
2023-02-19T22:31:54.569Z,101907.78
2023-02-19T22:34:22.263Z,101902.25
2023-02-19T22:36:50.619Z,101914.59
2023-02-19T22:39:21.038Z,101910.31
2023-02-19T22:41:49.281Z,101915.59
2023-02-19T22:44:17.949Z,101913.19
2023-02-19T22:46:49.647Z,101915.16
2023-02-19T22:49:18.077Z,101914.75
2023-02-19T22:51:55.089Z,101924.03
2023-02-19T22:54:27.019Z,101918.97
2023-02-19T22:56:55.010Z,101916.00
2023-02-19T22:59:22.783Z,101925.22
2023-02-19T23:01:50.952Z,101920.16
2023-02-19T23:04:18.677Z,101922.09
2023-02-19T23:06:49.915Z,101924.66
2023-02-19T23:09:20.846Z,101929.25
2023-02-19T23:11:50.016Z,101936.09
2023-02-19T23:14:20.486Z,101935.47
2023-02-19T23:16:48.448Z,101932.84
2023-02-19T23:19:16.908Z,101936.16
2023-02-19T23:21:47.189Z,101941.69
2023-02-19T23:24:15.348Z,101940.81
2023-02-19T23:26:45.888Z,101936.25
2023-02-19T23:29:18.326Z,101938.34
2023-02-19T23:31:46.284Z,101930.41
2023-02-19T23:34:14.763Z,101928.63
2023-02-19T23:36:42.829Z,101927.06
2023-02-19T23:39:11.765Z,101933.47
2023-02-19T23:41:40.444Z,101926.44
2023-02-19T23:44:08.936Z,101930.72
2023-02-19T23:46:37.853Z,101925.59
2023-02-19T23:49:05.882Z,101926.44
2023-02-19T23:51:34.880Z,101923.97
2023-02-19T23:54:02.735Z,101915.34
2023-02-19T23:56:30.815Z,101914.34
2023-02-19T23:58:58.528Z,101911.94
